createdAt,value
2017-07-24T00:00:53.928Z,18.90
2017-07-24T00:05:55.600Z,18.90
2017-07-24T00:10:57.328Z,18.80
2017-07-24T00:15:59.076Z,18.60
2017-07-24T00:21:00.683Z,18.60
2017-07-24T00:26:03.036Z,18.60
2017-07-24T00:31:04.699Z,18.50
2017-07-24T00:36:06.325Z,18.40
2017-07-24T00:41:08.054Z,18.30
2017-07-24T00:46:09.712Z,18.10
2017-07-24T00:51:11.344Z,18.00
2017-07-24T00:56:13.044Z,17.80
2017-07-24T01:01:15.568Z,17.70
2017-07-24T01:06:18.541Z,17.60
2017-07-24T01:11:20.293Z,17.20
2017-07-24T01:16:22.711Z,17.00
2017-07-24T01:21:24.508Z,16.80
2017-07-24T01:26:27.980Z,16.50
2017-07-24T01:31:29.680Z,16.30
2017-07-24T01:36:31.369Z,16.20
2017-07-24T01:41:33.042Z,16.20
2017-07-24T01:46:34.715Z,16.20
2017-07-24T01:51:36.388Z,16.10
2017-07-24T01:56:38.060Z,15.90
2017-07-24T02:01:39.939Z,16.00
2017-07-24T02:06:42.504Z,15.90
2017-07-24T02:11:44.279Z,15.80
2017-07-24T02:16:45.979Z,15.90
2017-07-24T02:21:47.653Z,15.80
2017-07-24T02:26:50.144Z,15.80
2017-07-24T02:31:51.817Z,15.80
2017-07-24T02:36:54.002Z,16.00
2017-07-24T02:42:10.700Z,16.10
2017-07-24T02:47:27.449Z,16.30
2017-07-24T02:52:43.922Z,16.20
2017-07-24T02:58:00.403Z,16.30
2017-07-24T03:03:02.068Z,16.30
2017-07-24T03:08:19.661Z,16.30
2017-07-24T03:13:36.216Z,16.30
2017-07-24T03:18:52.748Z,16.30
2017-07-24T03:23:55.554Z,16.10
2017-07-24T03:28:57.229Z,16.00
2017-07-24T03:33:58.879Z,15.90
2017-07-24T03:39:05.132Z,15.90
2017-07-24T03:44:07.960Z,15.90
2017-07-24T03:49:10.177Z,15.80
2017-07-24T03:54:11.923Z,15.80
2017-07-24T03:59:13.818Z,15.80
2017-07-24T04:04:15.476Z,15.90
2017-07-24T04:09:17.161Z,15.80
2017-07-24T04:14:18.834Z,15.80
2017-07-24T04:19:20.609Z,15.80
2017-07-24T04:24:22.259Z,15.70
2017-07-24T04:29:23.955Z,15.70
2017-07-24T04:34:26.060Z,15.60
2017-07-24T04:39:27.709Z,15.50
2017-07-24T04:44:29.383Z,15.60
2017-07-24T04:49:31.033Z,15.50
2017-07-24T04:54:32.699Z,15.50
2017-07-24T04:59:34.372Z,15.50
2017-07-24T05:04:36.893Z,15.50
2017-07-24T05:09:38.535Z,15.40
2017-07-24T05:14:40.238Z,15.50
2017-07-24T05:19:41.912Z,15.40
2017-07-24T05:24:43.556Z,15.40
2017-07-24T05:29:45.358Z,15.40
2017-07-24T05:34:47.031Z,15.20
2017-07-24T05:39:48.680Z,15.10
2017-07-24T05:44:50.376Z,15.10
2017-07-24T05:49:52.292Z,15.20
2017-07-24T05:54:55.581Z,15.20
2017-07-24T05:59:57.239Z,15.20
2017-07-24T06:04:58.792Z,15.30
2017-07-24T06:10:00.560Z,15.20
2017-07-24T06:15:02.229Z,15.20
2017-07-24T06:20:04.544Z,15.20
2017-07-24T06:25:06.216Z,15.10
2017-07-24T06:30:08.397Z,15.10
2017-07-24T06:35:09.970Z,15.10
2017-07-24T06:40:11.644Z,15.10
2017-07-24T06:45:13.979Z,15.20
2017-07-24T06:50:15.604Z,15.30
2017-07-24T06:55:17.248Z,15.40
2017-07-24T07:00:19.492Z,15.40
2017-07-24T07:05:21.732Z,15.40
2017-07-24T07:10:23.268Z,15.40
2017-07-24T07:15:24.991Z,15.50
2017-07-24T07:20:26.635Z,15.40
2017-07-24T07:25:28.337Z,15.50
2017-07-24T07:30:30.667Z,15.50
2017-07-24T07:35:32.268Z,15.60
2017-07-24T07:40:33.940Z,15.60
2017-07-24T07:45:35.475Z,15.60
2017-07-24T07:50:37.080Z,15.80
2017-07-24T07:55:38.635Z,15.80
2017-07-24T08:00:41.071Z,15.50
2017-07-24T08:05:42.742Z,15.50
2017-07-24T08:10:44.423Z,15.20
2017-07-24T08:15:45.993Z,14.80
2017-07-24T08:20:47.760Z,14.50
2017-07-24T08:25:50.047Z,14.40
2017-07-24T08:30:51.705Z,14.30
2017-07-24T08:35:53.364Z,14.30
2017-07-24T08:40:55.065Z,14.50
2017-07-24T08:45:56.707Z,14.50
2017-07-24T08:50:58.410Z,14.30
2017-07-24T08:56:00.509Z,14.60
2017-07-24T09:01:02.147Z,14.70
2017-07-24T09:06:04.323Z,15.10
2017-07-24T09:11:07.219Z,15.20
2017-07-24T09:16:11.852Z,15.60
2017-07-24T09:21:16.556Z,15.40
2017-07-24T09:26:22.411Z,15.20
2017-07-24T09:31:27.123Z,15.30
2017-07-24T09:36:28.895Z,15.20
2017-07-24T09:41:33.162Z,15.70
2017-07-24T09:46:35.724Z,15.60
2017-07-24T09:51:37.406Z,15.70
2017-07-24T09:56:39.697Z,15.60
2017-07-24T10:01:41.801Z,15.50
2017-07-24T10:06:43.469Z,15.60
2017-07-24T10:11:46.728Z,15.60
2017-07-24T10:16:49.835Z,15.70
2017-07-24T10:21:53.300Z,16.00
2017-07-24T10:26:54.975Z,15.90
2017-07-24T10:31:56.620Z,16.20
2017-07-24T10:36:58.272Z,16.40
2017-07-24T10:41:59.963Z,17.80
2017-07-24T10:47:02.847Z,18.50
2017-07-24T10:52:06.308Z,19.00
2017-07-24T10:57:07.957Z,19.00
2017-07-24T11:02:09.628Z,18.90
2017-07-24T11:07:11.296Z,18.00
2017-07-24T11:12:12.996Z,18.30
2017-07-24T11:17:14.668Z,19.00
2017-07-24T11:22:16.317Z,18.70
2017-07-24T11:27:17.983Z,19.20
2017-07-24T11:32:20.689Z,19.20
2017-07-24T11:37:22.343Z,19.00
2017-07-24T11:42:24.119Z,18.80
2017-07-24T11:47:27.199Z,18.10
2017-07-24T11:52:28.938Z,18.10
2017-07-24T11:57:30.579Z,18.10
2017-07-24T12:02:32.284Z,18.10
2017-07-24T12:07:35.913Z,18.10
2017-07-24T12:12:37.507Z,17.50
2017-07-24T12:17:39.208Z,17.40
2017-07-24T12:22:41.359Z,17.50
2017-07-24T12:27:44.749Z,17.50
2017-07-24T12:32:46.517Z,17.70
2017-07-24T12:37:48.194Z,17.80
2017-07-24T12:42:49.832Z,18.00
2017-07-24T12:47:51.535Z,18.60
2017-07-24T12:52:57.099Z,19.00
2017-07-24T12:57:58.696Z,19.00
2017-07-24T13:03:00.445Z,19.30
2017-07-24T13:08:03.023Z,19.20
2017-07-24T13:13:05.844Z,19.10
2017-07-24T13:18:07.584Z,18.90
2017-07-24T13:23:15.974Z,18.70
2017-07-24T13:28:17.615Z,18.50
2017-07-24T13:33:19.271Z,18.20
2017-07-24T13:38:21.168Z,18.00
2017-07-24T13:43:24.653Z,17.90
2017-07-24T13:48:26.339Z,18.00
2017-07-24T13:53:28.005Z,18.20
2017-07-24T13:58:29.683Z,18.10
2017-07-24T14:03:31.289Z,18.20
2017-07-24T14:08:32.839Z,18.00
2017-07-24T14:13:34.513Z,17.60
2017-07-24T14:18:37.824Z,17.50
2017-07-24T14:23:39.497Z,17.80
2017-07-24T14:28:42.026Z,17.70
2017-07-24T14:33:43.871Z,17.60
2017-07-24T14:38:45.540Z,17.10
2017-07-24T14:43:47.611Z,17.30
2017-07-24T14:48:50.323Z,17.70
2017-07-24T14:53:51.974Z,17.90
2017-07-24T14:58:54.688Z,18.30
2017-07-24T15:03:56.337Z,18.70
2017-07-24T15:08:57.983Z,18.80
2017-07-24T15:14:03.188Z,18.60
2017-07-24T15:19:05.447Z,18.70
2017-07-24T15:24:07.126Z,18.80
2017-07-24T15:29:09.024Z,18.80
2017-07-24T15:34:10.800Z,18.60
2017-07-24T15:39:12.444Z,18.30
2017-07-24T15:44:14.115Z,18.10
2017-07-24T15:49:15.818Z,17.20
2017-07-24T15:54:19.393Z,16.30
2017-07-24T15:59:27.182Z,15.90
2017-07-24T16:04:31.992Z,16.30
2017-07-24T16:09:33.865Z,16.40
2017-07-24T16:14:35.566Z,15.90
2017-07-24T16:19:38.245Z,16.10
2017-07-24T16:24:39.918Z,15.90
2017-07-24T16:29:42.593Z,16.70
2017-07-24T16:34:44.288Z,16.90
2017-07-24T16:39:46.472Z,16.50
2017-07-24T16:44:48.204Z,16.10
2017-07-24T16:49:49.920Z,16.40
2017-07-24T16:54:51.595Z,16.60
2017-07-24T16:59:53.268Z,16.50
2017-07-24T17:04:56.185Z,16.70
2017-07-24T17:09:57.811Z,16.70
2017-07-24T17:14:59.496Z,16.40
2017-07-24T17:20:01.186Z,16.50
2017-07-24T17:25:02.858Z,16.30
2017-07-24T17:30:04.510Z,16.30
2017-07-24T17:35:06.392Z,16.20
2017-07-24T17:40:08.188Z,16.40
2017-07-24T17:45:10.850Z,16.60
2017-07-24T17:50:12.580Z,16.40
2017-07-24T17:55:15.497Z,16.30
2017-07-24T18:00:17.985Z,16.20
2017-07-24T18:05:20.185Z,16.30
2017-07-24T18:10:22.541Z,16.60
2017-07-24T18:15:24.577Z,16.50
2017-07-24T18:20:26.348Z,16.40
2017-07-24T18:25:28.181Z,16.50
2017-07-24T18:30:29.942Z,16.30
2017-07-24T18:35:32.564Z,16.10
2017-07-24T18:40:34.242Z,15.90
2017-07-24T18:45:36.037Z,15.90
2017-07-24T18:50:37.755Z,15.90
